^^
Station Historical Data
Daily Summary for Nil La, TWC- Units:  Both    English   Metric
« Previous Day
Next Day »
Daily Weekly Monthly Yearly Custom
  High: Low: Average:
Temperature: TemperatureC °F /  -17.8 °C 12.9 °F /  -10.6 °C 17.9 °F /  -7.8 °C
Dew Point: DewpointC °F /  -17.8 °C 11.5 °F /  -11.4 °C 15.7 °F /  -9.1 °C
Humidity: Humidity% 73% 87%
Wind Speed: WindSpeedKMHmph /  0km/h - 0.1mph /  0.2km/h
Wind Gust: WindSpeedGustKMHmph /  0km/h - -
Wind- - SSW
Pressure: PressurehPa in /  0 hPa 1012.0 in /  34266.3 hPa -
Precipitation: 3.8 in /  96.52 mm    
Historical Graphs
 
 
Tabular Data for Nil La, TWC-
Time Temperature Dew Point Pressure Wind Wind Speed Wind Gust Humidity Rainfall Rate (Hourly) solar Conditions
TemperatureC °F /  -17.8 °C DewpointC °F /  -17.8 °C PressurehPain /  0hPa Calm     Humidity% HourlyPrecipMMin /  0mm SoftwareType W/m2 Conditions
00:04 15.1 °F /  -9.4 °C 12.9 °F /  -10.6 °C 1015.7in /  34391.6hPa Calm     87% 0.0in /  0mm WeatherDisplay:10.37 W/m2 FEW
00:09 15.1 °F /  -9.4 °C 12.9 °F /  -10.6 °C 1015.7in /  34391.6hPa Calm     87% 0.0in /  0mm WeatherDisplay:10.37 W/m2 FEW
00:14 14.9 °F /  -9.5 °C 13.0 °F /  -10.6 °C 1015.7in /  34391.6hPa Calm     88% 0.0in /  0mm WeatherDisplay:10.37 W/m2 FEW
00:19 14.9 °F /  -9.5 °C 13.0 °F /  -10.6 °C 1015.7in /  34391.6hPa Calm     88% 0.0in /  0mm WeatherDisplay:10.37 W/m2 FEW
00:24 14.9 °F /  -9.5 °C 13.0 °F /  -10.6 °C 1015.6in /  34388.2hPa Calm     88% 0.0in /  0mm WeatherDisplay:10.37 W/m2 FEW
00:29 14.9 °F /  -9.5 °C 13.0 °F /  -10.6 °C 1015.6in /  34388.2hPa Calm     88% 0.0in /  0mm WeatherDisplay:10.37 W/m2 FEW
00:34 14.9 °F /  -9.5 °C 13.0 °F /  -10.6 °C 1015.5in /  34384.8hPa Calm     88% 0.0in /  0mm WeatherDisplay:10.37 W/m2 FEW
00:39 15.0 °F /  -9.4 °C 13.0 °F /  -10.6 °C 1015.5in /  34384.8hPa Calm     88% 0.0in /  0mm WeatherDisplay:10.37 W/m2 FEW
00:44 15.0 °F /  -9.4 °C 13.0 °F /  -10.6 °C 1015.5in /  34384.8hPa Calm     88% 0.0in /  0mm WeatherDisplay:10.37 W/m2 FEW
00:49 15.0 °F /  -9.4 °C 13.0 °F /  -10.6 °C 1015.5in /  34384.8hPa Calm     88% 0.0in /  0mm WeatherDisplay:10.37 W/m2 FEW
00:54 15.0 °F /  -9.4 °C 13.0 °F /  -10.6 °C 1015.5in /  34384.8hPa Calm     88% 0.0in /  0mm WeatherDisplay:10.37 W/m2 FEW
00:59 15.0 °F /  -9.4 °C 13.0 °F /  -10.6 °C 1015.5in /  34384.8hPa Calm     88% 0.0in /  0mm WeatherDisplay:10.37 W/m2 FEW
01:04 15.0 °F /  -9.4 °C 13.0 °F /  -10.6 °C 1015.5in /  34384.8hPa Calm     88% 0.0in /  0mm WeatherDisplay:10.37 W/m2 CLR
01:09 15.0 °F /  -9.4 °C 13.0 °F /  -10.6 °C 1015.4in /  34381.4hPa Calm     88% 0.0in /  0mm WeatherDisplay:10.37 W/m2 CLR
01:14 15.0 °F /  -9.4 °C 13.6 °F /  -10.2 °C 1015.4in /  34381.4hPa Calm     91% 0.0in /  0mm WeatherDisplay:10.37 W/m2 CLR
01:19 15.0 °F /  -9.4 °C 13.6 °F /  -10.2 °C 1015.4in /  34381.4hPa Calm     91% 0.0in /  0mm WeatherDisplay:10.37 W/m2 CLR
01:24 14.9 °F /  -9.5 °C 13.2 °F /  -10.4 °C 1015.3in /  34378.1hPa Calm     89% 0.0in /  0mm WeatherDisplay:10.37 W/m2 CLR
01:29 14.9 °F /  -9.5 °C 13.1 °F /  -10.5 °C 1015.4in /  34381.4hPa Calm     89% 0.0in /  0mm WeatherDisplay:10.37 W/m2 CLR
01:34 14.8 °F /  -9.6 °C 13.1 °F /  -10.5 °C 1015.4in /  34381.4hPa Calm     89% 0.0in /  0mm WeatherDisplay:10.37 W/m2 CLR
01:39 14.8 °F /  -9.6 °C 13.1 °F /  -10.5 °C 1015.3in /  34378.1hPa Calm     89% 0.0in /  0mm WeatherDisplay:10.37 W/m2 CLR
01:44 14.8 °F /  -9.6 °C 13.1 °F /  -10.5 °C 1015.3in /  34378.1hPa Calm     89% 0.0in /  0mm WeatherDisplay:10.37 W/m2 CLR
01:49 14.8 °F /  -9.6 °C 13.1 °F /  -10.5 °C 1015.2in /  34374.7hPa Calm     89% 0.0in /  0mm WeatherDisplay:10.37 W/m2 CLR
01:54 14.8 °F /  -9.6 °C 13.1 °F /  -10.5 °C 1015.2in /  34374.7hPa Calm     89% 0.0in /  0mm WeatherDisplay:10.37 W/m2 CLR
01:59 14.8 °F /  -9.6 °C 13.1 °F /  -10.5 °C 1015.2in /  34374.7hPa Calm     89% 0.0in /  0mm WeatherDisplay:10.37 W/m2 CLR
02:04 14.8 °F /  -9.6 °C 13.1 °F /  -10.5 °C 1015.2in /  34374.7hPa Calm     89% 0.0in /  0mm WeatherDisplay:10.37 W/m2 SCT
02:09 14.8 °F /  -9.6 °C 13.0 °F /  -10.6 °C 1015.2in /  34374.7hPa Calm     89% 0.0in /  0mm WeatherDisplay:10.37 W/m2 SCT
02:14 14.8 °F /  -9.6 °C 13.0 °F /  -10.6 °C 1015.0in /  34367.9hPa Calm     89% 0.0in /  0mm WeatherDisplay:10.37 W/m2 SCT
02:19 14.7 °F /  -9.6 °C 12.9 °F /  -10.6 °C 1015.0in /  34367.9hPa Calm     89% 0.0in /  0mm WeatherDisplay:10.37 W/m2 SCT
02:24 14.7 °F /  -9.6 °C 12.9 °F /  -10.6 °C 1015.0in /  34367.9hPa Calm     89% 0.0in /  0mm WeatherDisplay:10.37 W/m2 SCT
02:29 14.7 °F /  -9.6 °C 12.9 °F /  -10.6 °C 1014.9in /  34364.5hPa Calm     89% 0.0in /  0mm WeatherDisplay:10.37 W/m2 SCT
02:34 14.7 °F /  -9.6 °C 12.9 °F /  -10.6 °C 1014.9in /  34364.5hPa Calm     89% 0.0in /  0mm WeatherDisplay:10.37 W/m2 SCT
02:39 14.6 °F /  -9.7 °C 12.8 °F /  -10.7 °C 1014.9in /  34364.5hPa Calm     89% 0.0in /  0mm WeatherDisplay:10.37 W/m2 SCT
02:44 14.6 °F /  -9.7 °C 12.8 °F /  -10.7 °C 1014.9in /  34364.5hPa Calm     89% 0.0in /  0mm WeatherDisplay:10.37 W/m2 SCT
02:49 14.5 °F /  -9.7 °C 12.7 °F /  -10.7 °C 1014.9in /  34364.5hPa Calm     89% 0.0in /  0mm WeatherDisplay:10.37 W/m2 SCT
02:54 14.4 °F /  -9.8 °C 12.7 °F /  -10.7 °C 1014.9in /  34364.5hPa Calm     89% 0.0in /  0mm WeatherDisplay:10.37 W/m2 SCT
02:59 14.4 °F /  -9.8 °C 12.8 °F /  -10.7 °C 1014.8in /  34361.1hPa Calm     90% 0.0in /  0mm WeatherDisplay:10.37 W/m2 SCT
03:04 14.4 °F /  -9.8 °C 12.8 °F /  -10.7 °C 1014.8in /  34361.1hPa Calm     90% 0.0in /  0mm WeatherDisplay:10.37 W/m2 SCT
03:09 14.3 °F /  -9.8 °C 12.7 °F /  -10.7 °C 1014.8in /  34361.1hPa Calm     90% 0.0in /  0mm WeatherDisplay:10.37 W/m2 SCT
03:14 14.3 °F /  -9.8 °C 12.7 °F /  -10.7 °C 1014.8in /  34361.1hPa Calm     90% 0.0in /  0mm WeatherDisplay:10.37 W/m2 SCT
03:19 14.3 °F /  -9.8 °C 12.7 °F /  -10.7 °C 1014.8in /  34361.1hPa Calm     90% 0.0in /  0mm WeatherDisplay:10.37 W/m2 SCT
03:24 14.3 °F /  -9.8 °C 12.7 °F /  -10.7 °C 1014.7in /  34357.7hPa Calm     90% 0.0in /  0mm WeatherDisplay:10.37 W/m2 SCT
03:29 14.3 °F /  -9.8 °C 12.7 °F /  -10.7 °C 1014.7in /  34357.7hPa Calm     90% 0.0in /  0mm WeatherDisplay:10.37 W/m2 SCT
03:34 14.3 °F /  -9.8 °C 12.8 °F /  -10.7 °C 1014.7in /  34357.7hPa Calm     91% 0.0in /  0mm WeatherDisplay:10.37 W/m2 FEW
03:39 14.2 °F /  -9.9 °C 12.6 °F /  -10.8 °C 1014.7in /  34357.7hPa Calm     90% 0.0in /  0mm WeatherDisplay:10.37 W/m2 FEW
03:44 14.2 °F /  -9.9 °C 12.6 °F /  -10.8 °C 1014.8in /  34361.1hPa Calm     90% 0.0in /  0mm WeatherDisplay:10.37 W/m2 FEW
03:49 14.2 °F /  -9.9 °C 12.8 °F /  -10.7 °C 1014.7in /  34357.7hPa Calm     91% 0.0in /  0mm WeatherDisplay:10.37 W/m2 FEW
03:54 14.2 °F /  -9.9 °C 12.6 °F /  -10.8 °C 1014.7in /  34357.7hPa Calm     90% 0.0in /  0mm WeatherDisplay:10.37 W/m2 FEW
03:59 14.2 °F /  -9.9 °C 12.6 °F /  -10.8 °C 1014.6in /  34354.4hPa Calm     90% 0.0in /  0mm WeatherDisplay:10.37 W/m2 FEW
04:04 14.2 °F /  -9.9 °C 12.8 °F /  -10.7 °C 1014.6in /  34354.4hPa Calm     91% 0.0in /  0mm WeatherDisplay:10.37 W/m2 SCT
04:09 14.2 °F /  -9.9 °C 12.8 °F /  -10.7 °C 1014.6in /  34354.4hPa Calm     91% 0.0in /  0mm WeatherDisplay:10.37 W/m2 SCT
04:14 14.2 °F /  -9.9 °C 12.8 °F /  -10.7 °C 1014.6in /  34354.4hPa Calm     91% 0.0in /  0mm WeatherDisplay:10.37 W/m2 SCT
04:19 14.2 °F /  -9.9 °C 12.7 °F /  -10.7 °C 1014.6in /  34354.4hPa Calm     91% 0.0in /  0mm WeatherDisplay:10.37 W/m2 SCT
04:24 14.1 °F /  -9.9 °C 12.6 °F /  -10.8 °C 1014.6in /  34354.4hPa Calm     91% 0.0in /  0mm WeatherDisplay:10.37 W/m2 SCT
04:29 14.0 °F /  -10 °C 12.4 °F /  -10.9 °C 1014.5in /  34351hPa Calm     90% 0.0in /  0mm WeatherDisplay:10.37 W/m2 SCT
04:34 13.9 °F /  -10.1 °C 12.3 °F /  -10.9 °C 1014.6in /  34354.4hPa Calm     90% 0.0in /  0mm WeatherDisplay:10.37 W/m2 SCT
04:39 13.9 °F /  -10.1 °C 12.3 °F /  -10.9 °C 1014.6in /  34354.4hPa Calm     90% 0.0in /  0mm WeatherDisplay:10.37 W/m2 SCT
04:44 13.8 °F /  -10.1 °C 12.4 °F /  -10.9 °C 1014.5in /  34351hPa Calm     91% 0.0in /  0mm WeatherDisplay:10.37 W/m2 SCT
04:49 13.8 °F /  -10.1 °C 12.2 °F /  -11 °C 1014.5in /  34351hPa Calm     90% 0.0in /  0mm WeatherDisplay:10.37 W/m2 SCT
04:54 13.7 °F /  -10.2 °C 12.1 °F /  -11.1 °C 1014.5in /  34351hPa Calm     90% 0.0in /  0mm WeatherDisplay:10.37 W/m2 SCT
04:59 13.6 °F /  -10.2 °C 11.9 °F /  -11.2 °C 1014.5in /  34351hPa Calm     90% 0.0in /  0mm WeatherDisplay:10.37 W/m2 SCT
05:04 13.5 °F /  -10.3 °C 12.1 °F /  -11.1 °C 1014.5in /  34351hPa Calm     91% 0.0in /  0mm WeatherDisplay:10.37 W/m2 FEW
05:09 13.4 °F /  -10.3 °C 12.0 °F /  -11.1 °C 1014.5in /  34351hPa Calm     91% 0.0in /  0mm WeatherDisplay:10.37 W/m2 FEW
05:14 13.4 °F /  -10.3 °C 11.9 °F /  -11.2 °C 1014.5in /  34351hPa Calm     91% 0.0in /  0mm WeatherDisplay:10.37 W/m2 FEW
05:19 13.3 °F /  -10.4 °C 11.9 °F /  -11.2 °C 1014.5in /  34351hPa Calm     91% 0.0in /  0mm WeatherDisplay:10.37 W/m2 FEW
05:24 13.3 °F /  -10.4 °C 11.8 °F /  -11.2 °C 1014.5in /  34351hPa Calm     91% 0.0in /  0mm WeatherDisplay:10.37 W/m2 FEW
05:29 13.3 °F /  -10.4 °C 11.8 °F /  -11.2 °C 1014.5in /  34351hPa Calm     91% 0.0in /  0mm WeatherDisplay:10.37 W/m2 FEW
05:34 13.2 °F /  -10.4 °C 11.8 °F /  -11.2 °C 1014.4in /  34347.6hPa Calm     91% 0.0in /  0mm WeatherDisplay:10.37 W/m2 FEW
05:39 13.2 °F /  -10.4 °C 11.7 °F /  -11.3 °C 1014.4in /  34347.6hPa Calm     91% 0.0in /  0mm WeatherDisplay:10.37 W/m2 FEW
05:44 13.1 °F /  -10.5 °C 11.7 °F /  -11.3 °C 1014.4in /  34347.6hPa Calm     91% 0.0in /  0mm WeatherDisplay:10.37 W/m2 FEW
05:49 13.1 °F /  -10.5 °C 11.6 °F /  -11.3 °C 1014.4in /  34347.6hPa Calm     91% 0.0in /  0mm WeatherDisplay:10.37 W/m2 FEW
05:54 13.0 °F /  -10.6 °C 11.6 °F /  -11.3 °C 1014.3in /  34344.2hPa Calm     91% 0.0in /  0mm WeatherDisplay:10.37 W/m2 FEW
05:59 13.0 °F /  -10.6 °C 11.6 °F /  -11.3 °C 1014.3in /  34344.2hPa Calm     91% 0.0in /  0mm WeatherDisplay:10.37 W/m2 FEW
06:04 12.9 °F /  -10.6 °C 11.5 °F /  -11.4 °C 1014.3in /  34344.2hPa Calm     91% 0.0in /  0mm WeatherDisplay:10.37 W/m2 FEW
06:09 12.9 °F /  -10.6 °C 11.5 °F /  -11.4 °C 1014.3in /  34344.2hPa Calm     91% 0.0in /  0mm WeatherDisplay:10.37 W/m2 FEW
06:14 13.0 °F /  -10.6 °C 11.6 °F /  -11.3 °C 1014.3in /  34344.2hPa Calm     91% 0.0in /  0mm WeatherDisplay:10.37 W/m2 FEW
06:19 13.0 °F /  -10.6 °C 11.6 °F /  -11.3 °C 1014.3in /  34344.2hPa Calm     91% 0.0in /  0mm WeatherDisplay:10.37 W/m2 FEW
06:24 13.0 °F /  -10.6 °C 11.6 °F /  -11.3 °C 1014.2in /  34340.8hPa Calm     91% 0.0in /  0mm WeatherDisplay:10.37 W/m2 FEW
06:29 13.1 °F /  -10.5 °C 11.6 °F /  -11.3 °C 1014.1in /  34337.4hPa Calm     91% 0.0in /  0mm WeatherDisplay:10.37 W/m2 FEW
06:34 13.1 °F /  -10.5 °C 11.6 °F /  -11.3 °C 1014.1in /  34337.4hPa Calm     91% 0.0in /  0mm WeatherDisplay:10.37 W/m2 FEW
06:39 13.2 °F /  -10.4 °C 11.7 °F /  -11.3 °C 1014.2in /  34340.8hPa Calm     91% 0.0in /  0mm WeatherDisplay:10.37 W/m2 FEW
06:44 13.2 °F /  -10.4 °C 11.8 °F /  -11.2 °C 1014.2in /  34340.8hPa Calm     91% 0.0in /  0mm WeatherDisplay:10.37 W/m2 FEW
06:49 13.3 °F /  -10.4 °C 11.9 °F /  -11.2 °C 1014.3in /  34344.2hPa Calm     91% 0.0in /  0mm WeatherDisplay:10.37 W/m2 FEW
06:54 13.4 °F /  -10.3 °C 12.0 °F /  -11.1 °C 1014.3in /  34344.2hPa Calm     91% 0.0in /  0mm WeatherDisplay:10.37 W/m2 FEW
06:59 13.7 °F /  -10.2 °C 12.2 °F /  -11 °C 1014.3in /  34344.2hPa Calm     91% 0.0in /  0mm WeatherDisplay:10.37 W/m2 FEW
07:04 13.9 °F /  -10.1 °C 12.5 °F /  -10.8 °C 1014.3in /  34344.2hPa Calm     91% 0.0in /  0mm WeatherDisplay:10.37 W/m2 FEW
07:09 14.2 °F /  -9.9 °C 12.7 °F /  -10.7 °C 1014.4in /  34347.6hPa Calm     91% 0.0in /  0mm WeatherDisplay:10.37 W/m2 FEW
07:14 14.4 °F /  -9.8 °C 12.9 °F /  -10.6 °C 1014.4in /  34347.6hPa Calm     91% 0.0in /  0mm WeatherDisplay:10.37 W/m2 FEW
07:19 14.7 °F /  -9.6 °C 13.2 °F /  -10.4 °C 1014.3in /  34344.2hPa Calm     91% 0.0in /  0mm WeatherDisplay:10.37 W/m2 FEW
07:24 14.8 °F /  -9.6 °C 13.4 °F /  -10.3 °C 1014.3in /  34344.2hPa Calm     91% 0.0in /  0mm WeatherDisplay:10.37 W/m2 FEW
07:29 15.1 °F /  -9.4 °C 13.6 °F /  -10.2 °C 1014.3in /  34344.2hPa Calm     91% 0.0in /  0mm WeatherDisplay:10.37 W/m2 FEW
07:34 15.3 °F /  -9.3 °C 13.9 °F /  -10.1 °C 1014.2in /  34340.8hPa Calm     91% 0.0in /  0mm WeatherDisplay:10.37 W/m2 FEW
07:39 15.6 °F /  -9.1 °C 14.2 °F /  -9.9 °C 1014.2in /  34340.8hPa Calm     91% 0.0in /  0mm WeatherDisplay:10.37 W/m2 FEW
07:44 15.9 °F /  -8.9 °C 14.5 °F /  -9.7 °C 1014.2in /  34340.8hPa South 0.2mph /  0.3km/h 1.6mph /  2.6km/h 91% 0.0in /  0mm WeatherDisplay:10.37 W/m2 FEW
07:49 16.2 °F /  -8.8 °C 14.8 °F /  -9.6 °C 1014.2in /  34340.8hPa Calm     91% 0.0in /  0mm WeatherDisplay:10.37 W/m2 FEW
07:54 16.5 °F /  -8.6 °C 15.0 °F /  -9.4 °C 1014.3in /  34344.2hPa Calm     91% 0.0in /  0mm WeatherDisplay:10.37 W/m2 FEW
07:59 16.7 °F /  -8.5 °C 15.2 °F /  -9.3 °C 1014.3in /  34344.2hPa Calm     91% 0.0in /  0mm WeatherDisplay:10.37 W/m2 FEW
08:04 17.1 °F /  -8.3 °C 15.6 °F /  -9.1 °C 1014.3in /  34344.2hPa Calm     91% 0.0in /  0mm WeatherDisplay:10.37 W/m2 FEW
08:09 17.5 °F /  -8.1 °C 16.0 °F /  -8.9 °C 1014.3in /  34344.2hPa Calm     91% 0.0in /  0mm WeatherDisplay:10.37 W/m2 FEW
08:14 17.8 °F /  -7.9 °C 16.3 °F /  -8.7 °C 1014.1in /  34337.4hPa South 0.2mph /  0.3km/h 1.6mph /  2.6km/h 91% 0.0in /  0mm WeatherDisplay:10.37 W/m2 FEW
08:19 18.3 °F /  -7.6 °C 16.8 °F /  -8.4 °C 1014.2in /  34340.8hPa Calm   1.6mph /  2.6km/h 91% 0.0in /  0mm WeatherDisplay:10.37 W/m2 FEW
08:24 18.8 °F /  -7.3 °C 17.3 °F /  -8.2 °C 1014.3in /  34344.2hPa Calm     91% 0.0in /  0mm WeatherDisplay:10.37 W/m2 FEW
08:29 19.3 °F /  -7.1 °C 17.5 °F /  -8.1 °C 1014.3in /  34344.2hPa Calm     89% 0.0in /  0mm WeatherDisplay:10.37 W/m2 FEW
08:34 19.8 °F /  -6.8 °C 17.8 °F /  -7.9 °C 1014.2in /  34340.8hPa NW 1.4mph /  2.3km/h 6.4mph /  10.3km/h 88% 0.0in /  0mm WeatherDisplay:10.37 W/m2 FEW
08:39 20.2 °F /  -6.6 °C 17.6 °F /  -8 °C 1014.2in /  34340.8hPa South 0.2mph /  0.3km/h 1.6mph /  2.6km/h 85% 0.0in /  0mm WeatherDisplay:10.37 W/m2 FEW
08:44 20.7 °F /  -6.3 °C 17.9 °F /  -7.8 °C 1014.2in /  34340.8hPa Calm     84% 0.0in /  0mm WeatherDisplay:10.37 W/m2 FEW
08:49 21.2 °F /  -6 °C 17.8 °F /  -7.9 °C 1014.2in /  34340.8hPa ENE 0.3mph /  0.5km/h 5.6mph /  9km/h 81% 0.0in /  0mm WeatherDisplay:10.37 W/m2 FEW
08:54 21.3 °F /  -5.9 °C 17.7 °F /  -7.9 °C 1014.1in /  34337.4hPa Calm   1.9mph /  3.1km/h 80% 0.0in /  0mm WeatherDisplay:10.37 W/m2 FEW
08:59 21.4 °F /  -5.9 °C 17.8 °F /  -7.9 °C 1014.1in /  34337.4hPa Calm     80% 0.0in /  0mm WeatherDisplay:10.37 W/m2 FEW
09:04 21.4 °F /  -5.9 °C 17.8 °F /  -7.9 °C 1014.0in /  34334hPa Calm     80% 0.0in /  0mm WeatherDisplay:10.37 W/m2 SCT
09:09 21.4 °F /  -5.9 °C 17.7 °F /  -7.9 °C 1014.1in /  34337.4hPa South 0.8mph /  1.3km/h 5.6mph /  9km/h 79% 0.0in /  0mm WeatherDisplay:10.37 W/m2 SCT
09:14 21.6 °F /  -5.8 °C 17.3 °F /  -8.2 °C 1014.1in /  34337.4hPa Calm     77% 0.0in /  0mm WeatherDisplay:10.37 W/m2 SCT
09:19 21.7 °F /  -5.7 °C 17.4 °F /  -8.1 °C 1014.1in /  34337.4hPa Calm   1.9mph /  3.1km/h 77% 0.0in /  0mm WeatherDisplay:10.37 W/m2 SCT
09:24 21.7 °F /  -5.7 °C 17.4 °F /  -8.1 °C 1014.1in /  34337.4hPa Calm   1.9mph /  3.1km/h 77% 0.0in /  0mm WeatherDisplay:10.37 W/m2 SCT
09:29 21.6 °F /  -5.8 °C 17.2 °F /  -8.2 °C 1014.1in /  34337.4hPa Calm     76% 0.0in /  0mm WeatherDisplay:10.37 W/m2 SCT
09:34 21.6 °F /  -5.8 °C 17.2 °F /  -8.2 °C 1014.1in /  34337.4hPa Calm     76% 0.0in /  0mm WeatherDisplay:10.37 W/m2 BKN
09:39 21.6 °F /  -5.8 °C 17.2 °F /  -8.2 °C 1014.2in /  34340.8hPa South 3.5mph /  5.6km/h 13.0mph /  20.9km/h 76% 0.0in /  0mm WeatherDisplay:10.37 W/m2 BKN
09:44 21.7 °F /  -5.7 °C 17.1 °F /  -8.3 °C 1014.2in /  34340.8hPa NNW 1.1mph /  1.8km/h 6.4mph /  10.3km/h 75% 0.0in /  0mm WeatherDisplay:10.37 W/m2 BKN
09:49 21.7 °F /  -5.7 °C 17.1 °F /  -8.3 °C 1014.2in /  34340.8hPa Calm     75% 0.0in /  0mm WeatherDisplay:10.37 W/m2 BKN
09:54 21.7 °F /  -5.7 °C 17.3 °F /  -8.2 °C 1014.2in /  34340.8hPa Calm   1.9mph /  3.1km/h 76% 0.0in /  0mm WeatherDisplay:10.37 W/m2 BKN
09:59 21.8 °F /  -5.7 °C 17.4 °F /  -8.1 °C 1014.3in /  34344.2hPa Calm     76% 0.0in /  0mm WeatherDisplay:10.37 W/m2 BKN
10:04 21.8 °F /  -5.7 °C 17.3 °F /  -8.2 °C 1014.2in /  34340.8hPa Calm     76% 0.0in /  0mm WeatherDisplay:10.37 W/m2 BKN
10:09 21.7 °F /  -5.7 °C 17.3 °F /  -8.2 °C 1014.2in /  34340.8hPa Calm     76% 0.0in /  0mm WeatherDisplay:10.37 W/m2 BKN
10:14 21.5 °F /  -5.8 °C 17.3 °F /  -8.2 °C 1014.2in /  34340.8hPa Calm     77% 0.0in /  0mm WeatherDisplay:10.37 W/m2 BKN
10:19 21.4 °F /  -5.9 °C 17.4 °F /  -8.1 °C 1014.2in /  34340.8hPa Calm   1.9mph /  3.1km/h 78% 0.0in /  0mm WeatherDisplay:10.37 W/m2 BKN
10:24 21.3 °F /  -5.9 °C 17.6 °F /  -8 °C 1014.2in /  34340.8hPa SE 0.5mph /  0.8km/h 5.6mph /  9km/h 79% 0.0in /  0mm WeatherDisplay:10.37 W/m2 BKN
10:29 21.3 °F /  -5.9 °C 17.6 °F /  -8 °C 1014.2in /  34340.8hPa SSE 0.3mph /  0.5km/h 3.7mph /  6km/h 79% 0.0in /  0mm WeatherDisplay:10.37 W/m2 BKN
10:34 21.3 °F /  -5.9 °C 17.5 °F /  -8.1 °C 1014.2in /  34340.8hPa Calm   5.6mph /  9km/h 79% 0.0in /  0mm WeatherDisplay:10.37 W/m2 BKN
10:39 21.3 °F /  -5.9 °C 17.7 °F /  -7.9 °C 1014.1in /  34337.4hPa SSE 1.3mph /  2.1km/h 5.6mph /  9km/h 80% 0.0in /  0mm WeatherDisplay:10.37 W/m2 BKN
10:44 21.4 °F /  -5.9 °C 17.7 °F /  -7.9 °C 1014.3in /  34344.2hPa Calm     79% 0.0in /  0mm WeatherDisplay:10.37 W/m2 BKN
10:49 21.6 °F /  -5.8 °C 17.8 °F /  -7.9 °C 1014.2in /  34340.8hPa Calm   5.6mph /  9km/h 79% 0.0in /  0mm WeatherDisplay:10.37 W/m2 BKN
10:54 21.8 °F /  -5.7 °C 18.0 °F /  -7.8 °C 1014.3in /  34344.2hPa SSW 1.9mph /  3.1km/h 5.6mph /  9km/h 79% 0.0in /  0mm WeatherDisplay:10.37 W/m2 BKN
10:59 21.8 °F /  -5.7 °C 17.8 °F /  -7.9 °C 1014.2in /  34340.8hPa Calm   1.6mph /  2.6km/h 78% 0.0in /  0mm WeatherDisplay:10.37 W/m2 BKN
11:04 22.1 °F /  -5.5 °C 18.1 °F /  -7.7 °C 1014.1in /  34337.4hPa Calm   9.3mph /  15km/h 78% 0.0in /  0mm WeatherDisplay:10.37 W/m2 BKN
11:09 22.6 °F /  -5.2 °C 18.3 °F /  -7.6 °C 1014.1in /  34337.4hPa SE 0.2mph /  0.3km/h 1.6mph /  2.6km/h 77% 0.0in /  0mm WeatherDisplay:10.37 W/m2 BKN
11:14 22.7 °F /  -5.2 °C 18.3 °F /  -7.6 °C 1014.1in /  34337.4hPa Calm   1.9mph /  3.1km/h 76% 0.0in /  0mm WeatherDisplay:10.37 W/m2 BKN
11:19 22.8 °F /  -5.1 °C 18.2 °F /  -7.7 °C 1014.0in /  34334hPa SE 0.2mph /  0.3km/h 1.9mph /  3.1km/h 75% 0.0in /  0mm WeatherDisplay:10.37 W/m2 BKN
11:24 22.9 °F /  -5.1 °C 18.3 °F /  -7.6 °C 1013.9in /  34330.7hPa South 0.5mph /  0.8km/h 3.2mph /  5.1km/h 75% 0.0in /  0mm WeatherDisplay:10.37 W/m2 BKN
11:29 22.9 °F /  -5.1 °C 18.3 °F /  -7.6 °C 1013.9in /  34330.7hPa North 0.6mph /  1km/h 3.2mph /  5.1km/h 75% 0.0in /  0mm WeatherDisplay:10.37 W/m2 BKN
11:34 22.9 °F /  -5.1 °C 18.2 °F /  -7.7 °C 1014.0in /  34334hPa Calm     75% 0.0in /  0mm WeatherDisplay:10.37 W/m2 SCT
11:39 22.7 °F /  -5.2 °C 18.0 °F /  -7.8 °C 1014.0in /  34334hPa Calm   1.9mph /  3.1km/h 75% 0.0in /  0mm WeatherDisplay:10.37 W/m2 SCT
11:44 22.6 °F /  -5.2 °C 18.1 °F /  -7.7 °C 1014.0in /  34334hPa Calm   1.6mph /  2.6km/h 76% 0.0in /  0mm WeatherDisplay:10.37 W/m2 SCT
11:49 22.4 °F /  -5.3 °C 17.9 °F /  -7.8 °C 1014.0in /  34334hPa Calm   1.9mph /  3.1km/h 76% 0.0in /  0mm WeatherDisplay:10.37 W/m2 SCT
11:54 22.3 °F /  -5.4 °C 18.1 °F /  -7.7 °C 1014.0in /  34334hPa Calm     77% 0.0in /  0mm WeatherDisplay:10.37 W/m2 SCT
11:59 22.6 °F /  -5.2 °C 18.3 °F /  -7.6 °C 1014.0in /  34334hPa Calm   1.9mph /  3.1km/h 77% 0.0in /  0mm WeatherDisplay:10.37 W/m2 SCT
12:04 22.8 °F /  -5.1 °C 18.3 °F /  -7.6 °C 1014.0in /  34334hPa Calm     76% 0.0in /  0mm WeatherDisplay:10.37 W/m2 SCT
12:09 22.8 °F /  -5.1 °C 18.3 °F /  -7.6 °C 1014.0in /  34334hPa Calm   3.7mph /  6km/h 76% 0.0in /  0mm WeatherDisplay:10.37 W/m2 SCT
12:14 22.7 °F /  -5.2 °C 18.0 °F /  -7.8 °C 1014.1in /  34337.4hPa NNW 2.3mph /  3.7km/h 5.6mph /  9km/h 75% 0.0in /  0mm WeatherDisplay:10.37 W/m2 SCT
12:19 22.5 °F /  -5.3 °C 17.6 °F /  -8 °C 1014.1in /  34337.4hPa Calm   5.6mph /  9km/h 74% 0.0in /  0mm WeatherDisplay:10.37 W/m2 SCT
12:24 22.1 °F /  -5.5 °C 17.0 °F /  -8.3 °C 1014.2in /  34340.8hPa Calm     73% 0.0in /  0mm WeatherDisplay:10.37 W/m2 SCT
12:29 21.7 °F /  -5.7 °C 16.8 °F /  -8.4 °C 1014.1in /  34337.4hPa Calm     74% 0.0in /  0mm WeatherDisplay:10.37 W/m2 SCT
12:34 21.6 °F /  -5.8 °C 16.9 °F /  -8.4 °C 1014.3in /  34344.2hPa Calm     75% 0.0in /  0mm WeatherDisplay:10.37 W/m2 SCT
12:39 21.4 °F /  -5.9 °C 16.8 °F /  -8.4 °C 1014.1in /  34337.4hPa Calm   1.9mph /  3.1km/h 75% 0.0in /  0mm WeatherDisplay:10.37 W/m2 SCT
12:44 21.8 °F /  -5.7 °C 17.2 °F /  -8.2 °C 1014.2in /  34340.8hPa WSW 2.3mph /  3.7km/h 13.0mph /  20.9km/h 75% 0.0in /  0mm WeatherDisplay:10.37 W/m2 SCT
12:49 21.8 °F /  -5.7 °C 16.8 °F /  -8.4 °C 1014.3in /  34344.2hPa Calm     73% 0.0in /  0mm WeatherDisplay:10.37 W/m2 SCT
12:54 21.6 °F /  -5.8 °C 17.0 °F /  -8.3 °C 1014.2in /  34340.8hPa Calm     75% 0.0in /  0mm WeatherDisplay:10.37 W/m2 SCT
12:59 21.5 °F /  -5.8 °C 17.1 °F /  -8.3 °C 1014.1in /  34337.4hPa NNW 0.2mph /  0.3km/h 1.6mph /  2.6km/h 76% 0.0in /  0mm WeatherDisplay:10.37 W/m2 SCT
13:04 21.3 °F /  -5.9 °C 17.7 °F /  -7.9 °C 1014.1in /  34337.4hPa Calm     80% 0.6in /  15.24mm WeatherDisplay:10.37 W/m2 RA
13:09 21.0 °F /  -6.1 °C 18.0 °F /  -7.8 °C 1014.1in /  34337.4hPa Calm     83% 1.2in /  30.48mm WeatherDisplay:10.37 W/m2 RA
13:14 20.5 °F /  -6.4 °C 17.9 °F /  -7.8 °C 1014.1in /  34337.4hPa Calm     85% 1.6in /  40.64mm WeatherDisplay:10.37 W/m2 RA
13:19 20.1 °F /  -6.6 °C 17.7 °F /  -7.9 °C 1014.1in /  34337.4hPa Calm     86% 1.8in /  45.72mm WeatherDisplay:10.37 W/m2 RA
13:24 19.9 °F /  -6.7 °C 17.8 °F /  -7.9 °C 1014.1in /  34337.4hPa Calm     88% 2.0in /  50.8mm WeatherDisplay:10.37 W/m2 RA
13:29 19.8 °F /  -6.8 °C 17.9 °F /  -7.8 °C 1014.2in /  34340.8hPa Calm     89% 2.0in /  50.8mm WeatherDisplay:10.37 W/m2 RA
13:34 19.7 °F /  -6.8 °C 17.8 °F /  -7.9 °C 1014.1in /  34337.4hPa Calm     89% 2.0in /  50.8mm WeatherDisplay:10.37 W/m2 SCT
13:39 19.6 °F /  -6.9 °C 17.9 °F /  -7.8 °C 1014.1in /  34337.4hPa Calm     90% 2.0in /  50.8mm WeatherDisplay:10.37 W/m2 FEW
13:44 19.6 °F /  -6.9 °C 17.9 °F /  -7.8 °C 1014.3in /  34344.2hPa Calm     90% 2.2in /  55.88mm WeatherDisplay:10.37 W/m2 RA
13:49 19.6 °F /  -6.9 °C 17.9 °F /  -7.8 °C 1014.2in /  34340.8hPa Calm     90% 2.2in /  55.88mm WeatherDisplay:10.37 W/m2 RA
13:54 19.7 °F /  -6.8 °C 18.0 °F /  -7.8 °C 1014.2in /  34340.8hPa Calm     90% 2.2in /  55.88mm WeatherDisplay:10.37 W/m2 FEW
13:59 19.7 °F /  -6.8 °C 18.1 °F /  -7.7 °C 1014.2in /  34340.8hPa Calm     90% 2.4in /  60.96mm WeatherDisplay:10.37 W/m2 RA
14:04 19.7 °F /  -6.8 °C 18.1 °F /  -7.7 °C 1014.2in /  34340.8hPa Calm     90% 1.8in /  45.72mm WeatherDisplay:10.37 W/m2 RA
14:09 20.2 °F /  -6.6 °C 18.5 °F /  -7.5 °C 1014.3in /  34344.2hPa Calm     90% 1.2in /  30.48mm WeatherDisplay:10.37 W/m2 SCT
14:14 20.1 °F /  -6.6 °C 18.4 °F /  -7.6 °C 1014.1in /  34337.4hPa Calm     90% 0.8in /  20.32mm WeatherDisplay:10.37 W/m2 SCT
14:19 20.2 °F /  -6.6 °C 18.5 °F /  -7.5 °C 1014.2in /  34340.8hPa Calm     90% 0.6in /  15.24mm WeatherDisplay:10.37 W/m2 SCT
14:24 20.2 °F /  -6.6 °C 18.6 °F /  -7.4 °C 1014.1in /  34337.4hPa Calm     90% 0.4in /  10.16mm WeatherDisplay:10.37 W/m2 SCT
14:29 20.2 °F /  -6.6 °C 18.6 °F /  -7.4 °C 1014.1in /  34337.4hPa Calm     90% 0.4in /  10.16mm WeatherDisplay:10.37 W/m2 SCT
14:34 20.3 °F /  -6.5 °C 18.8 °F /  -7.3 °C 1014.1in /  34337.4hPa Calm     91% 0.4in /  10.16mm WeatherDisplay:10.37 W/m2 BKN
14:39 20.2 °F /  -6.6 °C 18.7 °F /  -7.4 °C 1014.1in /  34337.4hPa Calm     91% 1.0in /  25.4mm WeatherDisplay:10.37 W/m2 RA
14:44 20.0 °F /  -6.7 °C 18.3 °F /  -7.6 °C 1014.2in /  34340.8hPa Calm     90% 1.4in /  35.56mm WeatherDisplay:10.37 W/m2 RA
14:49 19.9 °F /  -6.7 °C 18.4 °F /  -7.6 °C 1014.2in /  34340.8hPa Calm     91% 1.4in /  35.56mm WeatherDisplay:10.37 W/m2 RA
14:54 19.8 °F /  -6.8 °C 18.3 °F /  -7.6 °C 1014.1in /  34337.4hPa Calm     91% 1.4in /  35.56mm WeatherDisplay:10.37 W/m2 BKN
14:59 19.8 °F /  -6.8 °C 18.1 °F /  -7.7 °C 1014.1in /  34337.4hPa Calm     90% 1.2in /  30.48mm WeatherDisplay:10.37 W/m2 BKN
15:04 19.7 °F /  -6.8 °C 18.1 °F /  -7.7 °C 1014.0in /  34334hPa Calm     90% 1.2in /  30.48mm WeatherDisplay:10.37 W/m2 BKN
15:09 19.7 °F /  -6.8 °C 18.0 °F /  -7.8 °C 1013.9in /  34330.7hPa Calm     90% 1.2in /  30.48mm WeatherDisplay:10.37 W/m2 BKN
15:14 19.7 °F /  -6.8 °C 18.0 °F /  -7.8 °C 1013.9in /  34330.7hPa Calm     90% 1.2in /  30.48mm WeatherDisplay:10.37 W/m2 BKN
15:19 19.8 °F /  -6.8 °C 18.2 °F /  -7.7 °C 1013.8in /  34327.3hPa Calm     90% 1.2in /  30.48mm WeatherDisplay:10.37 W/m2 BKN
15:24 19.9 °F /  -6.7 °C 18.3 °F /  -7.6 °C 1013.7in /  34323.9hPa Calm     90% 1.2in /  30.48mm WeatherDisplay:10.37 W/m2 BKN
15:29 20.0 °F /  -6.7 °C 18.3 °F /  -7.6 °C 1013.7in /  34323.9hPa Calm     90% 1.2in /  30.48mm WeatherDisplay:10.37 W/m2 BKN
15:34 20.2 °F /  -6.6 °C 18.5 °F /  -7.5 °C 1013.7in /  34323.9hPa Calm     90% 1.2in /  30.48mm WeatherDisplay:10.37 W/m2 BKN
15:39 20.3 °F /  -6.5 °C 18.6 °F /  -7.4 °C 1013.6in /  34320.5hPa Calm     90% 0.6in /  15.24mm WeatherDisplay:10.37 W/m2 BKN
15:44 20.3 °F /  -6.5 °C 18.6 °F /  -7.4 °C 1013.5in /  34317.1hPa Calm     90% 0.0in /  0mm WeatherDisplay:10.37 W/m2 BKN
15:49 20.2 °F /  -6.6 °C 18.5 °F /  -7.5 °C 1013.4in /  34313.7hPa Calm     90% 0.0in /  0mm WeatherDisplay:10.37 W/m2 BKN
15:54 20.2 °F /  -6.6 °C 18.6 °F /  -7.4 °C 1013.3in /  34310.3hPa Calm     90% 0.0in /  0mm WeatherDisplay:10.37 W/m2 BKN
15:59 20.4 °F /  -6.4 °C 18.7 °F /  -7.4 °C 1013.3in /  34310.3hPa Calm     90% 0.0in /  0mm WeatherDisplay:10.37 W/m2 BKN
16:04 20.4 °F /  -6.4 °C 18.7 °F /  -7.4 °C 1013.3in /  34310.3hPa Calm     90% 0.0in /  0mm WeatherDisplay:10.37 W/m2 BKN
16:09 20.4 °F /  -6.4 °C 18.9 °F /  -7.3 °C 1013.2in /  34307hPa Calm     91% 0.0in /  0mm WeatherDisplay:10.37 W/m2 BKN
16:14 20.5 °F /  -6.4 °C 18.8 °F /  -7.3 °C 1013.1in /  34303.6hPa Calm     90% 0.0in /  0mm WeatherDisplay:10.37 W/m2 BKN
16:19 20.6 °F /  -6.3 °C 18.8 °F /  -7.3 °C 1013.1in /  34303.6hPa Calm     90% 0.0in /  0mm WeatherDisplay:10.37 W/m2 BKN
16:24 20.7 °F /  -6.3 °C 19.2 °F /  -7.1 °C 1013.1in /  34303.6hPa Calm     91% 0.0in /  0mm WeatherDisplay:10.37 W/m2 BKN
16:29 20.6 °F /  -6.3 °C 18.8 °F /  -7.3 °C 1013.0in /  34300.2hPa Calm     90% 0.0in /  0mm WeatherDisplay:10.37 W/m2 BKN
16:34 20.5 °F /  -6.4 °C 18.8 °F /  -7.3 °C 1013.0in /  34300.2hPa Calm     90% 0.0in /  0mm WeatherDisplay:10.37 W/m2 BKN
16:39 20.4 °F /  -6.4 °C 18.7 °F /  -7.4 °C 1013.0in /  34300.2hPa Calm     90% 0.0in /  0mm WeatherDisplay:10.37 W/m2 BKN
16:44 20.5 °F /  -6.4 °C 19.0 °F /  -7.2 °C 1012.9in /  34296.8hPa Calm     91% 0.0in /  0mm WeatherDisplay:10.37 W/m2 BKN
16:49 20.4 °F /  -6.4 °C 18.7 °F /  -7.4 °C 1012.9in /  34296.8hPa Calm     90% 0.0in /  0mm WeatherDisplay:10.37 W/m2 BKN
16:54 20.4 °F /  -6.4 °C 18.9 °F /  -7.3 °C 1013.0in /  34300.2hPa Calm     91% 0.0in /  0mm WeatherDisplay:10.37 W/m2 BKN
16:59 20.2 °F /  -6.6 °C 18.7 °F /  -7.4 °C 1013.0in /  34300.2hPa Calm     91% 0.0in /  0mm WeatherDisplay:10.37 W/m2 BKN
17:04 20.1 °F /  -6.6 °C 18.4 °F /  -7.6 °C 1012.9in /  34296.8hPa Calm     90% 0.0in /  0mm WeatherDisplay:10.37 W/m2 BKN
17:09 19.9 °F /  -6.7 °C 18.3 °F /  -7.6 °C 1012.9in /  34296.8hPa Calm     90% 0.0in /  0mm WeatherDisplay:10.37 W/m2 BKN
17:14 19.8 °F /  -6.8 °C 18.2 °F /  -7.7 °C 1012.9in /  34296.8hPa Calm     90% 0.0in /  0mm WeatherDisplay:10.37 W/m2 BKN
17:19 19.8 °F /  -6.8 °C 18.1 °F /  -7.7 °C 1012.9in /  34296.8hPa Calm     90% 0.0in /  0mm WeatherDisplay:10.37 W/m2 BKN
17:24 19.7 °F /  -6.8 °C 18.0 °F /  -7.8 °C 1012.8in /  34293.4hPa Calm     90% 0.0in /  0mm WeatherDisplay:10.37 W/m2 BKN
17:29 19.6 °F /  -6.9 °C 17.9 °F /  -7.8 °C 1012.8in /  34293.4hPa Calm     90% 0.0in /  0mm WeatherDisplay:10.37 W/m2 BKN
17:34 19.4 °F /  -7 °C 17.7 °F /  -7.9 °C 1012.8in /  34293.4hPa Calm     90% 0.0in /  0mm WeatherDisplay:10.37 W/m2 BKN
17:39 19.3 °F /  -7.1 °C 17.7 °F /  -7.9 °C 1012.8in /  34293.4hPa Calm     90% 0.0in /  0mm WeatherDisplay:10.37 W/m2 BKN
17:44 19.3 °F /  -7.1 °C 17.8 °F /  -7.9 °C 1012.8in /  34293.4hPa Calm     91% 0.0in /  0mm WeatherDisplay:10.37 W/m2 BKN
17:49 19.3 °F /  -7.1 °C 17.8 °F /  -7.9 °C 1012.7in /  34290hPa Calm     91% 0.0in /  0mm WeatherDisplay:10.37 W/m2 BKN
17:54 19.2 °F /  -7.1 °C 17.7 °F /  -7.9 °C 1012.8in /  34293.4hPa Calm     91% 0.0in /  0mm WeatherDisplay:10.37 W/m2 BKN
17:59 19.0 °F /  -7.2 °C 17.3 °F /  -8.2 °C 1012.7in /  34290hPa Calm     90% 0.0in /  0mm WeatherDisplay:10.37 W/m2 BKN
18:04 18.9 °F /  -7.3 °C 17.2 °F /  -8.2 °C 1012.7in /  34290hPa Calm     90% 0.0in /  0mm WeatherDisplay:10.37 W/m2 BKN
18:09 18.8 °F /  -7.3 °C 17.3 °F /  -8.2 °C 1012.7in /  34290hPa Calm     91% 0.0in /  0mm WeatherDisplay:10.37 W/m2 BKN
18:14 18.7 °F /  -7.4 °C 17.2 °F /  -8.2 °C 1012.6in /  34286.6hPa Calm     91% 0.0in /  0mm WeatherDisplay:10.37 W/m2 BKN
18:19 18.7 °F /  -7.4 °C 17.1 °F /  -8.3 °C 1012.5in /  34283.3hPa Calm     90% 0.0in /  0mm WeatherDisplay:10.37 W/m2 BKN
18:24 18.7 °F /  -7.4 °C 17.0 °F /  -8.3 °C 1012.4in /  34279.9hPa Calm     90% 0.0in /  0mm WeatherDisplay:10.37 W/m2 BKN
18:29 18.7 °F /  -7.4 °C 17.0 °F /  -8.3 °C 1012.4in /  34279.9hPa Calm     90% 0.0in /  0mm WeatherDisplay:10.37 W/m2 BKN
18:34 18.7 °F /  -7.4 °C 17.0 °F /  -8.3 °C 1012.3in /  34276.5hPa Calm     90% 0.0in /  0mm WeatherDisplay:10.37 W/m2 CLR
18:39 18.6 °F /  -7.4 °C 17.1 °F /  -8.3 °C 1012.3in /  34276.5hPa Calm     91% 0.0in /  0mm WeatherDisplay:10.37 W/m2 CLR
18:44 18.6 °F /  -7.4 °C 16.9 °F /  -8.4 °C 1012.3in /  34276.5hPa Calm     90% 0.0in /  0mm WeatherDisplay:10.37 W/m2 CLR
18:49 18.6 °F /  -7.4 °C 17.1 °F /  -8.3 °C 1012.3in /  34276.5hPa Calm     91% 0.0in /  0mm WeatherDisplay:10.37 W/m2 CLR
18:54 18.5 °F /  -7.5 °C 17.0 °F /  -8.3 °C 1012.3in /  34276.5hPa Calm     91% 0.0in /  0mm WeatherDisplay:10.37 W/m2 CLR
18:59 18.5 °F /  -7.5 °C 17.0 °F /  -8.3 °C 1012.3in /  34276.5hPa Calm     91% 0.0in /  0mm WeatherDisplay:10.37 W/m2 CLR
19:04 18.4 °F /  -7.6 °C 16.9 °F /  -8.4 °C 1012.4in /  34279.9hPa Calm     91% 0.0in /  0mm WeatherDisplay:10.37 W/m2 CLR
19:09 18.3 °F /  -7.6 °C 16.8 °F /  -8.4 °C 1012.4in /  34279.9hPa Calm     91% 0.0in /  0mm WeatherDisplay:10.37 W/m2 CLR
19:14 18.3 °F /  -7.6 °C 16.8 °F /  -8.4 °C 1012.2in /  34273.1hPa Calm     91% 0.0in /  0mm WeatherDisplay:10.37 W/m2 CLR
19:19 18.3 °F /  -7.6 °C 16.8 °F /  -8.4 °C 1012.2in /  34273.1hPa Calm     91% 0.0in /  0mm WeatherDisplay:10.37 W/m2 CLR
19:24 18.2 °F /  -7.7 °C 16.7 °F /  -8.5 °C 1012.2in /  34273.1hPa Calm     91% 0.0in /  0mm WeatherDisplay:10.37 W/m2 CLR
19:29 18.2 °F /  -7.7 °C 16.7 °F /  -8.5 °C 1012.1in /  34269.7hPa Calm     91% 0.0in /  0mm WeatherDisplay:10.37 W/m2 CLR
19:34 18.2 °F /  -7.7 °C 16.7 °F /  -8.5 °C 1012.2in /  34273.1hPa Calm     91% 0.0in /  0mm WeatherDisplay:10.37 W/m2 CLR
19:39 18.2 °F /  -7.7 °C 16.7 °F /  -8.5 °C 1012.2in /  34273.1hPa Calm     91% 0.0in /  0mm WeatherDisplay:10.37 W/m2 CLR
19:44 18.2 °F /  -7.7 °C 16.7 °F /  -8.5 °C 1012.2in /  34273.1hPa Calm     91% 0.0in /  0mm WeatherDisplay:10.37 W/m2 CLR
19:49 18.2 °F /  -7.7 °C 16.7 °F /  -8.5 °C 1012.2in /  34273.1hPa Calm     91% 0.0in /  0mm WeatherDisplay:10.37 W/m2 CLR
19:54 18.2 °F /  -7.7 °C 16.7 °F /  -8.5 °C 1012.2in /  34273.1hPa Calm     91% 0.2in /  5.08mm WeatherDisplay:10.37 W/m2 RA
19:58 18.2 °F /  -7.7 °C 16.7 °F /  -8.5 °C 1012.1in /  34269.7hPa Calm     91% 0.2in /  5.08mm WeatherDisplay:10.37 W/m2 RA
20:04 18.2 °F /  -7.7 °C 16.7 °F /  -8.5 °C 1012.1in /  34269.7hPa Calm     91% 0.2in /  5.08mm WeatherDisplay:10.37 W/m2 SCT
20:09 18.2 °F /  -7.7 °C 16.7 °F /  -8.5 °C 1012.1in /  34269.7hPa Calm     91% 0.2in /  5.08mm WeatherDisplay:10.37 W/m2 SCT
20:14 18.1 °F /  -7.7 °C 16.6 °F /  -8.6 °C 1012.0in /  34266.3hPa Calm     91% 0.2in /  5.08mm WeatherDisplay:10.37 W/m2 SCT
20:19 17.9 °F /  -7.8 °C 16.4 °F /  -8.7 °C 1012.0in /  34266.3hPa Calm     91% 0.2in /  5.08mm WeatherDisplay:10.37 W/m2 SCT
20:24 17.8 °F /  -7.9 °C 16.3 °F /  -8.7 °C 1012.0in /  34266.3hPa Calm   1.9mph /  3.1km/h 91% 0.2in /  5.08mm WeatherDisplay:10.37 W/m2 SCT
20:29 17.7 °F /  -7.9 °C 16.2 °F /  -8.8 °C 1012.0in /  34266.3hPa Calm     91% 0.2in /  5.08mm WeatherDisplay:10.37 W/m2 SCT
20:34 17.6 °F /  -8 °C 16.1 °F /  -8.8 °C 1012.0in /  34266.3hPa Calm     91% 0.2in /  5.08mm WeatherDisplay:10.37 W/m2 SCT
20:39 17.4 °F /  -8.1 °C 15.9 °F /  -8.9 °C 1012.0in /  34266.3hPa Calm     91% 0.2in /  5.08mm WeatherDisplay:10.37 W/m2 SCT
20:44 17.2 °F /  -8.2 °C 15.7 °F /  -9.1 °C 1012.0in /  34266.3hPa Calm     91% 0.2in /  5.08mm WeatherDisplay:10.37 W/m2 SCT
20:49 17.1 °F /  -8.3 °C 15.6 °F /  -9.1 °C 1012.1in /  34269.7hPa Calm     91% 0.2in /  5.08mm WeatherDisplay:10.37 W/m2 SCT
20:54 17.0 °F /  -8.3 °C 15.5 °F /  -9.2 °C 1012.1in /  34269.7hPa Calm     91% 0.0in /  0mm WeatherDisplay:10.37 W/m2 SCT
Tuulensuunkaari, Veikkola, Suomi
Compliments of Weather Underground - 2.5 mb